sensor_id;sensor_type;location;lat;lon;timestamp;temperature;humidity
7784;DHT22;19359;51.402;6.778;2023-10-13T00:01:46;17.00;1.00
7784;DHT22;19359;51.402;6.778;2023-10-13T00:04:13;17.00;1.00
7784;DHT22;19359;51.402;6.778;2023-10-13T00:06:40;17.20;1.00
7784;DHT22;19359;51.402;6.778;2023-10-13T00:09:08;16.90;1.00
7784;DHT22;19359;51.402;6.778;2023-10-13T00:11:41;17.10;1.00
7784;DHT22;19359;51.402;6.778;2023-10-13T00:14:11;17.10;1.00
7784;DHT22;19359;51.402;6.778;2023-10-13T00:16:41;17.10;1.00
7784;DHT22;19359;51.402;6.778;2023-10-13T00:19:27;17.00;1.00
7784;DHT22;19359;51.402;6.778;2023-10-13T00:21:54;17.00;1.00
7784;DHT22;19359;51.402;6.778;2023-10-13T00:27:08;17.00;1.00
7784;DHT22;19359;51.402;6.778;2023-10-13T00:29:51;17.10;1.00
7784;DHT22;19359;51.402;6.778;2023-10-13T00:32:30;17.10;1.00
7784;DHT22;19359;51.402;6.778;2023-10-13T00:34:57;17.10;1.00
7784;DHT22;19359;51.402;6.778;2023-10-13T00:37:30;17.10;1.00
7784;DHT22;19359;51.402;6.778;2023-10-13T00:40:07;17.10;1.00
7784;DHT22;19359;51.402;6.778;2023-10-13T00:42:49;17.10;1.00
7784;DHT22;19359;51.402;6.778;2023-10-13T00:45:20;17.10;1.00
7784;DHT22;19359;51.402;6.778;2023-10-13T00:47:46;17.10;1.00
7784;DHT22;19359;51.402;6.778;2023-10-13T00:50:16;17.00;1.00
7784;DHT22;19359;51.402;6.778;2023-10-13T00:52:44;17.20;1.00
7784;DHT22;19359;51.402;6.778;2023-10-13T00:55:13;17.10;1.00
7784;DHT22;19359;51.402;6.778;2023-10-13T00:57:40;17.10;1.00
7784;DHT22;19359;51.402;6.778;2023-10-13T01:00:08;17.20;1.00
7784;DHT22;19359;51.402;6.778;2023-10-13T01:02:45;17.20;1.00
7784;DHT22;19359;51.402;6.778;2023-10-13T01:05:21;17.20;1.00
7784;DHT22;19359;51.402;6.778;2023-10-13T01:07:47;17.20;1.00
7784;DHT22;19359;51.402;6.778;2023-10-13T01:10:18;17.20;1.00
7784;DHT22;19359;51.402;6.778;2023-10-13T01:12:45;17.20;1.00
7784;DHT22;19359;51.402;6.778;2023-10-13T01:17:45;17.20;1.00
7784;DHT22;19359;51.402;6.778;2023-10-13T01:20:12;17.30;1.00
7784;DHT22;19359;51.402;6.778;2023-10-13T01:22:45;17.20;1.00
7784;DHT22;19359;51.402;6.778;2023-10-13T01:25:17;17.20;1.00
7784;DHT22;19359;51.402;6.778;2023-10-13T01:27:45;17.20;1.00
7784;DHT22;19359;51.402;6.778;2023-10-13T01:30:14;17.20;1.00
7784;DHT22;19359;51.402;6.778;2023-10-13T01:32:48;17.30;1.00
7784;DHT22;19359;51.402;6.778;2023-10-13T01:35:16;17.10;1.00
7784;DHT22;19359;51.402;6.778;2023-10-13T01:37:44;17.20;1.00
7784;DHT22;19359;51.402;6.778;2023-10-13T01:40:11;17.10;1.00
7784;DHT22;19359;51.402;6.778;2023-10-13T01:42:45;17.10;1.00
7784;DHT22;19359;51.402;6.778;2023-10-13T01:45:11;17.10;1.00
7784;DHT22;19359;51.402;6.778;2023-10-13T01:47:39;17.00;1.00
7784;DHT22;19359;51.402;6.778;2023-10-13T01:50:06;17.00;1.00
7784;DHT22;19359;51.402;6.778;2023-10-13T01:55:08;17.10;1.00
7784;DHT22;19359;51.402;6.778;2023-10-13T01:57:37;17.00;1.00
7784;DHT22;19359;51.402;6.778;2023-10-13T02:00:08;17.00;1.00
7784;DHT22;19359;51.402;6.778;2023-10-13T02:02:44;17.00;1.00
7784;DHT22;19359;51.402;6.778;2023-10-13T02:05:11;16.90;1.00
7784;DHT22;19359;51.402;6.778;2023-10-13T02:07:37;17.30;1.00
7784;DHT22;19359;51.402;6.778;2023-10-13T02:10:11;16.90;1.00
7784;DHT22;19359;51.402;6.778;2023-10-13T02:12:37;17.00;1.00
7784;DHT22;19359;51.402;6.778;2023-10-13T02:15:11;16.90;1.00
7784;DHT22;19359;51.402;6.778;2023-10-13T02:17:46;16.90;1.00
7784;DHT22;19359;51.402;6.778;2023-10-13T02:20:17;16.80;1.00
7784;DHT22;19359;51.402;6.778;2023-10-13T02:22:44;16.90;1.00
7784;DHT22;19359;51.402;6.778;2023-10-13T02:25:15;16.90;1.00
7784;DHT22;19359;51.402;6.778;2023-10-13T02:27:43;16.90;1.00
7784;DHT22;19359;51.402;6.778;2023-10-13T02:30:15;16.90;1.00
7784;DHT22;19359;51.402;6.778;2023-10-13T02:32:41;16.90;1.00
7784;DHT22;19359;51.402;6.778;2023-10-13T02:35:09;16.90;1.00
7784;DHT22;19359;51.402;6.778;2023-10-13T02:37:41;16.90;1.00
7784;DHT22;19359;51.402;6.778;2023-10-13T02:40:10;17.00;1.00
7784;DHT22;19359;51.402;6.778;2023-10-13T02:42:36;17.00;1.00
7784;DHT22;19359;51.402;6.778;2023-10-13T02:45:05;16.90;1.00
7784;DHT22;19359;51.402;6.778;2023-10-13T02:47:32;17.00;1.00
7784;DHT22;19359;51.402;6.778;2023-10-13T02:49:59;17.00;1.00
7784;DHT22;19359;51.402;6.778;2023-10-13T02:52:26;17.10;1.00
7784;DHT22;19359;51.402;6.778;2023-10-13T02:54:53;16.90;1.00
7784;DHT22;19359;51.402;6.778;2023-10-13T02:57:20;17.00;1.00
7784;DHT22;19359;51.402;6.778;2023-10-13T02:59:48;17.00;1.00
7784;DHT22;19359;51.402;6.778;2023-10-13T03:02:21;17.00;1.00
7784;DHT22;19359;51.402;6.778;2023-10-13T03:04:54;17.00;1.00
7784;DHT22;19359;51.402;6.778;2023-10-13T03:07:24;17.00;1.00
7784;DHT22;19359;51.402;6.778;2023-10-13T03:09:54;17.00;1.00
7784;DHT22;19359;51.402;6.778;2023-10-13T03:12:23;16.90;1.00
7784;DHT22;19359;51.402;6.778;2023-10-13T03:14:51;17.00;1.00
7784;DHT22;19359;51.402;6.778;2023-10-13T03:17:23;17.00;1.00
7784;DHT22;19359;51.402;6.778;2023-10-13T03:22:26;17.00;1.00
7784;DHT22;19359;51.402;6.778;2023-10-13T03:24:59;16.90;1.00
7784;DHT22;19359;51.402;6.778;2023-10-13T03:27:30;17.00;1.00
7784;DHT22;19359;51.402;6.778;2023-10-13T03:30:06;17.00;1.00
7784;DHT22;19359;51.402;6.778;2023-10-13T03:32:40;17.00;1.00
7784;DHT22;19359;51.402;6.778;2023-10-13T03:35:11;17.00;1.00
7784;DHT22;19359;51.402;6.778;2023-10-13T03:37:39;17.00;1.00
7784;DHT22;19359;51.402;6.778;2023-10-13T03:40:08;17.10;1.00
7784;DHT22;19359;51.402;6.778;2023-10-13T03:42:57;17.00;1.00
7784;DHT22;19359;51.402;6.778;2023-10-13T03:45:30;17.00;1.00
7784;DHT22;19359;51.402;6.778;2023-10-13T03:48:04;17.10;1.00
7784;DHT22;19359;51.402;6.778;2023-10-13T03:50:36;17.00;1.00
7784;DHT22;19359;51.402;6.778;2023-10-13T03:53:03;17.00;1.00
7784;DHT22;19359;51.402;6.778;2023-10-13T03:55:34;17.00;1.00
7784;DHT22;19359;51.402;6.778;2023-10-13T03:58:01;17.00;1.00
7784;DHT22;19359;51.402;6.778;2023-10-13T04:00:29;17.00;1.00
7784;DHT22;19359;51.402;6.778;2023-10-13T04:02:57;17.00;1.00
7784;DHT22;19359;51.402;6.778;2023-10-13T04:05:36;16.60;1.00
7784;DHT22;19359;51.402;6.778;2023-10-13T04:08:10;17.00;1.00
7784;DHT22;19359;51.402;6.778;2023-10-13T04:10:55;16.90;1.00
7784;DHT22;19359;51.402;6.778;2023-10-13T04:13:39;17.00;1.00
7784;DHT22;19359;51.402;6.778;2023-10-13T04:16:23;17.00;1.00
7784;DHT22;19359;51.402;6.778;2023-10-13T04:19:16;17.00;1.00
7784;DHT22;19359;51.402;6.778;2023-10-13T04:21:50;17.00;1.00
7784;DHT22;19359;51.402;6.778;2023-10-13T04:24:39;17.00;1.00
7784;DHT22;19359;51.402;6.778;2023-10-13T04:27:26;16.50;97.50
7784;DHT22;19359;51.402;6.778;2023-10-13T04:30:19;17.00;1.00
7784;DHT22;19359;51.402;6.778;2023-10-13T04:32:52;17.00;99.90
7784;DHT22;19359;51.402;6.778;2023-10-13T04:35:42;16.90;99.90
7784;DHT22;19359;51.402;6.778;2023-10-13T04:38:14;17.00;1.00
7784;DHT22;19359;51.402;6.778;2023-10-13T04:40:46;17.00;37.20
7784;DHT22;19359;51.402;6.778;2023-10-13T04:43:24;16.80;99.90
7784;DHT22;19359;51.402;6.778;2023-10-13T04:46:19;17.00;1.00
7784;DHT22;19359;51.402;6.778;2023-10-13T04:49:01;17.20;1.00
7784;DHT22;19359;51.402;6.778;2023-10-13T04:51:36;17.00;1.00
7784;DHT22;19359;51.402;6.778;2023-10-13T04:54:25;17.30;1.00
7784;DHT22;19359;51.402;6.778;2023-10-13T04:56:52;17.00;1.00
7784;DHT22;19359;51.402;6.778;2023-10-13T04:59:36;17.10;1.00
7784;DHT22;19359;51.402;6.778;2023-10-13T05:02:23;17.10;1.00
7784;DHT22;19359;51.402;6.778;2023-10-13T05:05:20;17.10;1.00
7784;DHT22;19359;51.402;6.778;2023-10-13T05:08:05;17.00;1.00
7784;DHT22;19359;51.402;6.778;2023-10-13T05:10:51;17.10;1.00
7784;DHT22;19359;51.402;6.778;2023-10-13T05:13:35;17.30;1.00
7784;DHT22;19359;51.402;6.778;2023-10-13T05:16:19;17.10;1.00
7784;DHT22;19359;51.402;6.778;2023-10-13T05:19:03;17.10;1.00
7784;DHT22;19359;51.402;6.778;2023-10-13T05:21:47;17.10;26.30
7784;DHT22;19359;51.402;6.778;2023-10-13T05:24:31;16.90;72.80
7784;DHT22;19359;51.402;6.778;2023-10-13T05:27:17;16.90;58.70
7784;DHT22;19359;51.402;6.778;2023-10-13T05:30:01;17.30;93.40
7784;DHT22;19359;51.402;6.778;2023-10-13T05:32:45;17.10;13.00
7784;DHT22;19359;51.402;6.778;2023-10-13T05:35:31;17.10;1.00
7784;DHT22;19359;51.402;6.778;2023-10-13T05:38:15;17.10;99.90
7784;DHT22;19359;51.402;6.778;2023-10-13T05:41:01;17.10;1.00
7784;DHT22;19359;51.402;6.778;2023-10-13T05:43:47;17.00;99.90
7784;DHT22;19359;51.402;6.778;2023-10-13T05:46:32;17.30;99.90
7784;DHT22;19359;51.402;6.778;2023-10-13T05:49:14;17.10;99.90
7784;DHT22;19359;51.402;6.778;2023-10-13T05:55:05;17.20;99.90
7784;DHT22;19359;51.402;6.778;2023-10-13T05:57:49;17.20;99.90
7784;DHT22;19359;51.402;6.778;2023-10-13T06:00:40;17.10;1.00
7784;DHT22;19359;51.402;6.778;2023-10-13T06:03:24;17.30;99.90
7784;DHT22;19359;51.402;6.778;2023-10-13T06:06:08;17.40;1.00
7784;DHT22;19359;51.402;6.778;2023-10-13T06:08:52;17.40;1.00
7784;DHT22;19359;51.402;6.778;2023-10-13T06:14:21;17.40;1.00
7784;DHT22;19359;51.402;6.778;2023-10-13T06:17:07;17.40;1.00
7784;DHT22;19359;51.402;6.778;2023-10-13T06:19:51;17.40;1.00
7784;DHT22;19359;51.402;6.778;2023-10-13T06:22:35;17.50;1.00
7784;DHT22;19359;51.402;6.778;2023-10-13T06:25:16;17.70;1.00
7784;DHT22;19359;51.402;6.778;2023-10-13T06:28:00;17.50;1.00
7784;DHT22;19359;51.402;6.778;2023-10-13T06:30:53;17.60;1.00
7784;DHT22;19359;51.402;6.778;2023-10-13T06:33:24;17.60;1.00
7784;DHT22;19359;51.402;6.778;2023-10-13T06:35:55;17.60;1.00
7784;DHT22;19359;51.402;6.778;2023-10-13T06:38:22;17.60;1.00
7784;DHT22;19359;51.402;6.778;2023-10-13T06:40:49;17.60;1.00
7784;DHT22;19359;51.402;6.778;2023-10-13T06:43:18;17.60;99.90
7784;DHT22;19359;51.402;6.778;2023-10-13T06:45:47;17.60;99.90
7784;DHT22;19359;51.402;6.778;2023-10-13T06:48:24;17.70;1.00
7784;DHT22;19359;51.402;6.778;2023-10-13T06:50:51;17.70;99.90
7784;DHT22;19359;51.402;6.778;2023-10-13T06:53:18;17.70;1.00
7784;DHT22;19359;51.402;6.778;2023-10-13T06:55:45;17.80;99.90
7784;DHT22;19359;51.402;6.778;2023-10-13T06:58:15;17.80;99.90
7784;DHT22;19359;51.402;6.778;2023-10-13T07:00:42;17.80;99.90
7784;DHT22;19359;51.402;6.778;2023-10-13T07:03:18;17.80;99.90
7784;DHT22;19359;51.402;6.778;2023-10-13T07:05:46;17.90;99.90
7784;DHT22;19359;51.402;6.778;2023-10-13T07:08:15;18.00;99.90
7784;DHT22;19359;51.402;6.778;2023-10-13T07:10:48;18.10;99.90
7784;DHT22;19359;51.402;6.778;2023-10-13T07:13:27;18.10;99.90
7784;DHT22;19359;51.402;6.778;2023-10-13T07:15:54;18.10;99.90
7784;DHT22;19359;51.402;6.778;2023-10-13T07:18:25;18.10;99.90
7784;DHT22;19359;51.402;6.778;2023-10-13T07:20:59;18.00;99.90
7784;DHT22;19359;51.402;6.778;2023-10-13T07:23:35;18.10;56.40
7784;DHT22;19359;51.402;6.778;2023-10-13T07:26:02;18.20;99.90
7784;DHT22;19359;51.402;6.778;2023-10-13T07:28:29;18.10;99.90
7784;DHT22;19359;51.402;6.778;2023-10-13T07:30:56;17.90;53.30
7784;DHT22;19359;51.402;6.778;2023-10-13T07:33:37;18.20;1.00
7784;DHT22;19359;51.402;6.778;2023-10-13T07:36:09;18.00;1.00
7784;DHT22;19359;51.402;6.778;2023-10-13T07:38:53;18.40;1.00
7784;DHT22;19359;51.402;6.778;2023-10-13T07:41:39;18.30;1.00
7784;DHT22;19359;51.402;6.778;2023-10-13T07:46:38;18.30;1.00
7784;DHT22;19359;51.402;6.778;2023-10-13T07:49:05;18.20;1.00
7784;DHT22;19359;51.402;6.778;2023-10-13T07:51:37;18.30;1.00
7784;DHT22;19359;51.402;6.778;2023-10-13T07:54:09;18.20;1.00
7784;DHT22;19359;51.402;6.778;2023-10-13T07:56:38;18.40;99.90
7784;DHT22;19359;51.402;6.778;2023-10-13T07:59:06;18.40;99.90
7784;DHT22;19359;51.402;6.778;2023-10-13T08:01:35;18.40;99.90
7784;DHT22;19359;51.402;6.778;2023-10-13T08:04:02;18.60;1.00
7784;DHT22;19359;51.402;6.778;2023-10-13T08:06:38;18.60;1.00
7784;DHT22;19359;51.402;6.778;2023-10-13T08:09:05;18.60;99.90
7784;DHT22;19359;51.402;6.778;2023-10-13T08:11:55;18.60;67.90
7784;DHT22;19359;51.402;6.778;2023-10-13T08:14:22;18.70;99.90
7784;DHT22;19359;51.402;6.778;2023-10-13T08:16:54;18.60;99.90
7784;DHT22;19359;51.402;6.778;2023-10-13T08:19:26;18.70;99.90
7784;DHT22;19359;51.402;6.778;2023-10-13T08:21:57;18.80;99.90
7784;DHT22;19359;51.402;6.778;2023-10-13T08:24:26;18.90;99.90
7784;DHT22;19359;51.402;6.778;2023-10-13T08:26:55;18.90;1.00
7784;DHT22;19359;51.402;6.778;2023-10-13T08:29:40;19.00;1.00
7784;DHT22;19359;51.402;6.778;2023-10-13T08:32:40;19.10;1.00
7784;DHT22;19359;51.402;6.778;2023-10-13T08:35:20;19.20;1.00
7784;DHT22;19359;51.402;6.778;2023-10-13T08:38:01;19.30;99.90
7784;DHT22;19359;51.402;6.778;2023-10-13T08:40:43;19.30;99.90
7784;DHT22;19359;51.402;6.778;2023-10-13T08:43:43;19.20;62.50
7784;DHT22;19359;51.402;6.778;2023-10-13T08:46:11;19.40;1.00
7784;DHT22;19359;51.402;6.778;2023-10-13T08:48:58;19.40;1.00
7784;DHT22;19359;51.402;6.778;2023-10-13T08:51:35;19.60;1.00
7784;DHT22;19359;51.402;6.778;2023-10-13T08:54:15;19.60;1.00
7784;DHT22;19359;51.402;6.778;2023-10-13T08:56:47;19.40;1.00
7784;DHT22;19359;51.402;6.778;2023-10-13T08:59:21;19.70;99.90
7784;DHT22;19359;51.402;6.778;2023-10-13T09:01:59;19.70;99.90
7784;DHT22;19359;51.402;6.778;2023-10-13T09:04:42;19.80;99.90
7784;DHT22;19359;51.402;6.778;2023-10-13T09:07:09;20.00;1.00
7784;DHT22;19359;51.402;6.778;2023-10-13T09:09:49;20.00;99.90
7784;DHT22;19359;51.402;6.778;2023-10-13T09:12:33;20.10;99.90
7784;DHT22;19359;51.402;6.778;2023-10-13T09:15:06;20.30;75.30
7784;DHT22;19359;51.402;6.778;2023-10-13T09:17:45;20.50;29.80
7784;DHT22;19359;51.402;6.778;2023-10-13T09:20:17;20.60;99.90
7784;DHT22;19359;51.402;6.778;2023-10-13T09:22:58;20.60;11.90
7784;DHT22;19359;51.402;6.778;2023-10-13T09:25:36;20.60;1.00
7784;DHT22;19359;51.402;6.778;2023-10-13T09:28:11;20.80;1.00
7784;DHT22;19359;51.402;6.778;2023-10-13T09:30:44;20.90;1.00
7784;DHT22;19359;51.402;6.778;2023-10-13T09:33:10;21.10;1.00
7784;DHT22;19359;51.402;6.778;2023-10-13T09:35:43;21.40;1.00
7784;DHT22;19359;51.402;6.778;2023-10-13T09:38:14;21.50;1.00
7784;DHT22;19359;51.402;6.778;2023-10-13T09:40:42;21.40;1.00
7784;DHT22;19359;51.402;6.778;2023-10-13T09:43:16;21.40;1.00
7784;DHT22;19359;51.402;6.778;2023-10-13T09:45:45;21.40;1.00
7784;DHT22;19359;51.402;6.778;2023-10-13T09:51:01;21.40;1.00
7784;DHT22;19359;51.402;6.778;2023-10-13T09:53:29;21.60;1.00
7784;DHT22;19359;51.402;6.778;2023-10-13T09:56:02;21.60;1.00
7784;DHT22;19359;51.402;6.778;2023-10-13T09:58:42;21.80;1.00
7784;DHT22;19359;51.402;6.778;2023-10-13T10:01:14;21.80;1.00
7784;DHT22;19359;51.402;6.778;2023-10-13T10:03:47;21.80;1.00
7784;DHT22;19359;51.402;6.778;2023-10-13T10:06:21;21.90;1.00
7784;DHT22;19359;51.402;6.778;2023-10-13T10:09:04;22.00;1.00
7784;DHT22;19359;51.402;6.778;2023-10-13T10:15:03;22.00;1.00
7784;DHT22;19359;51.402;6.778;2023-10-13T10:17:39;22.00;1.00
7784;DHT22;19359;51.402;6.778;2023-10-13T10:20:07;22.00;1.00
7784;DHT22;19359;51.402;6.778;2023-10-13T10:22:55;22.10;1.00
7784;DHT22;19359;51.402;6.778;2023-10-13T10:25:29;21.80;1.00
7784;DHT22;19359;51.402;6.778;2023-10-13T10:28:03;22.10;1.00
7784;DHT22;19359;51.402;6.778;2023-10-13T10:30:33;22.10;1.00
7784;DHT22;19359;51.402;6.778;2023-10-13T10:33:00;22.00;1.00
7784;DHT22;19359;51.402;6.778;2023-10-13T10:35:33;22.20;1.00
7784;DHT22;19359;51.402;6.778;2023-10-13T10:38:07;22.20;1.00
7784;DHT22;19359;51.402;6.778;2023-10-13T10:40:48;22.10;1.00
7784;DHT22;19359;51.402;6.778;2023-10-13T10:43:19;22.20;1.00
7784;DHT22;19359;51.402;6.778;2023-10-13T10:45:46;22.20;1.00
7784;DHT22;19359;51.402;6.778;2023-10-13T10:48:15;22.20;1.00
7784;DHT22;19359;51.402;6.778;2023-10-13T10:50:51;22.30;1.00
7784;DHT22;19359;51.402;6.778;2023-10-13T10:53:20;22.30;1.00
7784;DHT22;19359;51.402;6.778;2023-10-13T10:55:48;22.40;1.00
7784;DHT22;19359;51.402;6.778;2023-10-13T10:58:15;22.40;1.00
7784;DHT22;19359;51.402;6.778;2023-10-13T11:01:05;22.40;1.00
7784;DHT22;19359;51.402;6.778;2023-10-13T11:03:36;22.40;1.00
7784;DHT22;19359;51.402;6.778;2023-10-13T11:06:11;22.60;1.00
7784;DHT22;19359;51.402;6.778;2023-10-13T11:08:42;22.50;1.00
7784;DHT22;19359;51.402;6.778;2023-10-13T11:11:16;22.70;1.00
7784;DHT22;19359;51.402;6.778;2023-10-13T11:13:56;22.70;1.00
7784;DHT22;19359;51.402;6.778;2023-10-13T11:16:46;22.70;1.00
7784;DHT22;19359;51.402;6.778;2023-10-13T11:19:16;22.50;1.00
7784;DHT22;19359;51.402;6.778;2023-10-13T11:21:46;22.40;1.00
7784;DHT22;19359;51.402;6.778;2023-10-13T11:24:13;22.50;1.00
7784;DHT22;19359;51.402;6.778;2023-10-13T11:26:43;22.60;1.00
7784;DHT22;19359;51.402;6.778;2023-10-13T11:29:15;22.50;1.00
7784;DHT22;19359;51.402;6.778;2023-10-13T11:31:46;22.60;1.00
7784;DHT22;19359;51.402;6.778;2023-10-13T11:34:19;22.70;1.00
7784;DHT22;19359;51.402;6.778;2023-10-13T11:36:46;22.90;1.00
7784;DHT22;19359;51.402;6.778;2023-10-13T11:39:12;23.10;1.00
7784;DHT22;19359;51.402;6.778;2023-10-13T11:41:44;23.40;1.00
7784;DHT22;19359;51.402;6.778;2023-10-13T11:44:19;23.60;1.00
7784;DHT22;19359;51.402;6.778;2023-10-13T11:46:58;23.70;1.00
7784;DHT22;19359;51.402;6.778;2023-10-13T11:49:54;23.90;1.00
7784;DHT22;19359;51.402;6.778;2023-10-13T11:52:24;23.70;1.00
7784;DHT22;19359;51.402;6.778;2023-10-13T11:54:55;23.80;1.00
7784;DHT22;19359;51.402;6.778;2023-10-13T11:57:22;23.90;1.00
7784;DHT22;19359;51.402;6.778;2023-10-13T11:59:49;23.80;1.00
7784;DHT22;19359;51.402;6.778;2023-10-13T12:02:43;23.70;1.00
7784;DHT22;19359;51.402;6.778;2023-10-13T12:05:27;23.90;1.00
7784;DHT22;19359;51.402;6.778;2023-10-13T12:08:14;24.00;1.00
7784;DHT22;19359;51.402;6.778;2023-10-13T12:10:47;24.00;1.00
7784;DHT22;19359;51.402;6.778;2023-10-13T12:13:25;24.10;1.00
7784;DHT22;19359;51.402;6.778;2023-10-13T12:15:52;24.40;1.00
7784;DHT22;19359;51.402;6.778;2023-10-13T12:18:23;24.20;1.00
7784;DHT22;19359;51.402;6.778;2023-10-13T12:20:53;24.30;1.00
7784;DHT22;19359;51.402;6.778;2023-10-13T12:23:22;24.10;1.00
7784;DHT22;19359;51.402;6.778;2023-10-13T12:25:56;24.20;1.00
7784;DHT22;19359;51.402;6.778;2023-10-13T12:28:28;24.30;1.00
7784;DHT22;19359;51.402;6.778;2023-10-13T12:30:56;24.30;1.00
7784;DHT22;19359;51.402;6.778;2023-10-13T12:33:33;24.00;1.00
7784;DHT22;19359;51.402;6.778;2023-10-13T12:36:06;24.10;1.00
7784;DHT22;19359;51.402;6.778;2023-10-13T12:38:35;24.00;1.00
7784;DHT22;19359;51.402;6.778;2023-10-13T12:41:37;24.00;1.00
7784;DHT22;19359;51.402;6.778;2023-10-13T12:44:22;24.00;1.00
7784;DHT22;19359;51.402;6.778;2023-10-13T12:47:06;23.90;1.00
7784;DHT22;19359;51.402;6.778;2023-10-13T12:49:52;23.70;1.00
7784;DHT22;19359;51.402;6.778;2023-10-13T12:52:25;23.50;1.00
7784;DHT22;19359;51.402;6.778;2023-10-13T12:54:52;23.80;1.00
7784;DHT22;19359;51.402;6.778;2023-10-13T12:57:31;23.70;1.00
7784;DHT22;19359;51.402;6.778;2023-10-13T12:59:58;23.70;1.00
7784;DHT22;19359;51.402;6.778;2023-10-13T13:02:26;23.80;1.00
7784;DHT22;19359;51.402;6.778;2023-10-13T13:04:56;23.70;1.00
7784;DHT22;19359;51.402;6.778;2023-10-13T13:07:31;23.60;1.00
7784;DHT22;19359;51.402;6.778;2023-10-13T13:10:09;23.70;1.00
7784;DHT22;19359;51.402;6.778;2023-10-13T13:12:37;23.60;1.00
7784;DHT22;19359;51.402;6.778;2023-10-13T13:15:04;23.70;1.00
7784;DHT22;19359;51.402;6.778;2023-10-13T13:17:34;23.90;1.00
7784;DHT22;19359;51.402;6.778;2023-10-13T13:20:02;23.90;1.00
7784;DHT22;19359;51.402;6.778;2023-10-13T13:22:37;24.10;1.00
7784;DHT22;19359;51.402;6.778;2023-10-13T13:25:05;24.10;1.00
7784;DHT22;19359;51.402;6.778;2023-10-13T13:27:35;24.00;1.00
7784;DHT22;19359;51.402;6.778;2023-10-13T13:30:03;24.00;1.00
7784;DHT22;19359;51.402;6.778;2023-10-13T13:32:38;23.90;1.00
7784;DHT22;19359;51.402;6.778;2023-10-13T13:35:07;23.70;1.00
7784;DHT22;19359;51.402;6.778;2023-10-13T13:37:39;23.70;1.00
7784;DHT22;19359;51.402;6.778;2023-10-13T13:40:09;23.60;1.00
7784;DHT22;19359;51.402;6.778;2023-10-13T13:42:47;23.50;1.00
7784;DHT22;19359;51.402;6.778;2023-10-13T13:45:14;23.50;1.00
7784;DHT22;19359;51.402;6.778;2023-10-13T13:47:52;23.20;1.00
7784;DHT22;19359;51.402;6.778;2023-10-13T13:50:22;23.30;1.00
7784;DHT22;19359;51.402;6.778;2023-10-13T13:52:52;23.40;1.00
7784;DHT22;19359;51.402;6.778;2023-10-13T13:55:21;23.40;1.00
7784;DHT22;19359;51.402;6.778;2023-10-13T13:57:48;23.30;1.00
7784;DHT22;19359;51.402;6.778;2023-10-13T14:00:17;23.40;1.00
7784;DHT22;19359;51.402;6.778;2023-10-13T14:02:48;23.40;1.00
7784;DHT22;19359;51.402;6.778;2023-10-13T14:05:15;23.40;1.00
7784;DHT22;19359;51.402;6.778;2023-10-13T14:07:44;23.40;1.00
7784;DHT22;19359;51.402;6.778;2023-10-13T14:10:15;23.40;1.00
7784;DHT22;19359;51.402;6.778;2023-10-13T14:12:57;23.10;1.00
7784;DHT22;19359;51.402;6.778;2023-10-13T14:15:32;23.10;1.00
7784;DHT22;19359;51.402;6.778;2023-10-13T14:18:05;23.10;1.00
7784;DHT22;19359;51.402;6.778;2023-10-13T14:23:06;23.10;1.00
7784;DHT22;19359;51.402;6.778;2023-10-13T14:25:35;23.10;1.00
7784;DHT22;19359;51.402;6.778;2023-10-13T14:28:03;22.90;1.00
7784;DHT22;19359;51.402;6.778;2023-10-13T14:32:57;22.90;1.00
7784;DHT22;19359;51.402;6.778;2023-10-13T14:35:24;22.80;1.00
7784;DHT22;19359;51.402;6.778;2023-10-13T14:37:52;22.80;1.00
7784;DHT22;19359;51.402;6.778;2023-10-13T14:40:20;22.70;1.00
7784;DHT22;19359;51.402;6.778;2023-10-13T14:42:48;22.60;1.00
7784;DHT22;19359;51.402;6.778;2023-10-13T14:45:15;22.60;1.00
7784;DHT22;19359;51.402;6.778;2023-10-13T14:47:43;22.50;1.00
7784;DHT22;19359;51.402;6.778;2023-10-13T14:50:10;22.50;1.00
7784;DHT22;19359;51.402;6.778;2023-10-13T14:52:45;22.50;1.00
7784;DHT22;19359;51.402;6.778;2023-10-13T14:55:12;22.70;1.00
7784;DHT22;19359;51.402;6.778;2023-10-13T14:57:46;22.50;1.00
7784;DHT22;19359;51.402;6.778;2023-10-13T15:00:15;22.40;1.00
7784;DHT22;19359;51.402;6.778;2023-10-13T15:02:50;22.00;1.00
7784;DHT22;19359;51.402;6.778;2023-10-13T15:07:44;22.40;1.00
7784;DHT22;19359;51.402;6.778;2023-10-13T15:10:13;22.20;1.00
7784;DHT22;19359;51.402;6.778;2023-10-13T15:12:41;22.20;1.00
7784;DHT22;19359;51.402;6.778;2023-10-13T15:15:11;22.30;1.00
7784;DHT22;19359;51.402;6.778;2023-10-13T15:17:41;22.30;1.00
7784;DHT22;19359;51.402;6.778;2023-10-13T15:20:09;22.30;1.00
7784;DHT22;19359;51.402;6.778;2023-10-13T15:22:37;22.20;1.00
7784;DHT22;19359;51.402;6.778;2023-10-13T15:25:05;22.10;1.00
7784;DHT22;19359;51.402;6.778;2023-10-13T15:27:43;22.10;1.00
7784;DHT22;19359;51.402;6.778;2023-10-13T15:30:17;22.10;1.00
7784;DHT22;19359;51.402;6.778;2023-10-13T15:32:50;22.10;1.00
7784;DHT22;19359;51.402;6.778;2023-10-13T15:35:17;22.10;1.00
7784;DHT22;19359;51.402;6.778;2023-10-13T15:37:44;22.00;1.00
7784;DHT22;19359;51.402;6.778;2023-10-13T15:50:13;22.10;1.00
7784;DHT22;19359;51.402;6.778;2023-10-13T15:52:43;22.10;1.00
7784;DHT22;19359;51.402;6.778;2023-10-13T15:55:13;22.00;1.00
7784;DHT22;19359;51.402;6.778;2023-10-13T16:00:08;21.90;1.00
7784;DHT22;19359;51.402;6.778;2023-10-13T16:05:20;21.90;1.00
7784;DHT22;19359;51.402;6.778;2023-10-13T16:07:49;22.00;1.00
7784;DHT22;19359;51.402;6.778;2023-10-13T16:12:44;22.00;1.00
7784;DHT22;19359;51.402;6.778;2023-10-13T16:17:40;21.80;1.00
7784;DHT22;19359;51.402;6.778;2023-10-13T16:22:45;21.80;1.00
7784;DHT22;19359;51.402;6.778;2023-10-13T16:25:14;21.80;1.00
7784;DHT22;19359;51.402;6.778;2023-10-13T16:27:42;21.80;1.00
7784;DHT22;19359;51.402;6.778;2023-10-13T16:40:10;21.40;1.00
7784;DHT22;19359;51.402;6.778;2023-10-13T16:45:05;21.40;1.00
7784;DHT22;19359;51.402;6.778;2023-10-13T16:50:09;21.50;1.00
7784;DHT22;19359;51.402;6.778;2023-10-13T16:52:37;21.30;1.00
7784;DHT22;19359;51.402;6.778;2023-10-13T17:05:00;21.10;1.00
7784;DHT22;19359;51.402;6.778;2023-10-13T17:07:28;21.30;1.00
7784;DHT22;19359;51.402;6.778;2023-10-13T17:17:23;21.00;1.00
7784;DHT22;19359;51.402;6.778;2023-10-13T17:19:50;21.10;1.00
7784;DHT22;19359;51.402;6.778;2023-10-13T17:22:17;21.10;1.00
7784;DHT22;19359;51.402;6.778;2023-10-13T17:24:45;21.00;1.00
7784;DHT22;19359;51.402;6.778;2023-10-13T17:29:42;20.70;1.00
7784;DHT22;19359;51.402;6.778;2023-10-13T17:32:09;20.80;1.00
7784;DHT22;19359;51.402;6.778;2023-10-13T17:34:36;20.30;1.00
7784;DHT22;19359;51.402;6.778;2023-10-13T17:39:31;20.50;1.00
7784;DHT22;19359;51.402;6.778;2023-10-13T17:44:27;20.50;1.00
7784;DHT22;19359;51.402;6.778;2023-10-13T17:51:48;20.30;1.00
7784;DHT22;19359;51.402;6.778;2023-10-13T17:54:15;20.50;1.00
7784;DHT22;19359;51.402;6.778;2023-10-13T18:06:35;20.20;1.00
7784;DHT22;19359;51.402;6.778;2023-10-13T18:09:03;20.40;1.00
7784;DHT22;19359;51.402;6.778;2023-10-13T18:11:36;20.20;1.00
7784;DHT22;19359;51.402;6.778;2023-10-13T18:19:01;20.10;1.00
7784;DHT22;19359;51.402;6.778;2023-10-13T18:21:33;20.10;1.00
7784;DHT22;19359;51.402;6.778;2023-10-13T18:24:01;19.70;1.00
7784;DHT22;19359;51.402;6.778;2023-10-13T18:26:28;19.90;1.00
7784;DHT22;19359;51.402;6.778;2023-10-13T18:28:55;19.90;1.00
7784;DHT22;19359;51.402;6.778;2023-10-13T18:31:24;20.00;1.00
7784;DHT22;19359;51.402;6.778;2023-10-13T18:33:53;19.90;1.00